Time;durP1;ratioP1;P1;durP2;ratioP2;P2;SDS_P1;SDS_P2;PMS_P1;PMS_P2;Temp;Humidity;BMP_temperature;BMP_pressure;BME280_temperature;BME280_humidity;BME280_pressure;Samples;Min_cycle;Max_cycle;Signal;HPM_P1;HPM_P2
2021/12/10 00:00:49;;;;;;;39.65;19.08;;;6.10;99.90;;;;;;5069278;28;20907;-72
2021/12/10 00:03:28;;;;;;;38.63;18.35;;;6.00;99.90;;;;;;5069092;28;20458;-73
2021/12/10 00:06:20;;;;;;;38.75;18.83;;;6.00;99.90;;;;;;5050761;28;20411;-73
2021/12/10 00:08:53;;;;;;;39.00;18.80;;;6.00;99.90;;;;;;5048962;28;20411;-71
2021/12/10 00:11:30;;;;;;;41.08;19.27;;;6.00;99.90;;;;;;5068671;28;20490;-71
2021/12/10 00:13:57;;;;;;;46.97;19.17;;;6.00;99.90;;;;;;5052637;28;20404;-72
2021/12/10 00:16:23;;;;;;;38.03;18.40;;;6.00;99.90;;;;;;5068342;28;20446;-73
2021/12/10 00:18:54;;;;;;;39.70;17.88;;;6.00;99.90;;;;;;5070699;28;20404;-72
2021/12/10 00:21:23;;;;;;;34.72;17.27;;;6.00;99.90;;;;;;5069637;28;20411;-72
2021/12/10 00:23:50;;;;;;;37.50;17.27;;;6.00;99.90;;;;;;5070169;28;20411;-75
2021/12/10 00:26:20;;;;;;;38.67;17.77;;;6.00;99.90;;;;;;5074784;28;20417;-72
2021/12/10 00:28:47;;;;;;;34.33;17.87;;;6.00;99.90;;;;;;5053806;28;20423;-73
2021/12/10 00:31:42;;;;;;;33.47;17.27;;;6.00;99.90;;;;;;5054454;28;20411;-72
2021/12/10 00:34:13;;;;;;;35.22;17.02;;;5.90;99.90;;;;;;5069602;28;20403;-71
2021/12/10 00:36:39;;;;;;;34.55;16.27;;;6.00;99.90;;;;;;5054967;28;20468;-71
2021/12/10 00:39:12;;;;;;;38.75;15.55;;;6.00;99.90;;;;;;5068551;28;20450;-72
2021/12/10 00:41:39;;;;;;;32.78;15.43;;;6.00;99.90;;;;;;5067616;28;20812;-73
2021/12/10 00:44:05;;;;;;;33.78;15.63;;;5.90;99.90;;;;;;5052227;28;20929;-72
2021/12/10 00:46:31;;;;;;;34.95;15.43;;;5.90;99.90;;;;;;5066415;28;20419;-71
2021/12/10 00:48:56;;;;;;;36.00;15.33;;;5.90;99.90;;;;;;5068922;28;21782;-72
2021/12/10 00:51:22;;;;;;;31.08;14.50;;;5.90;99.90;;;;;;5077817;28;20488;-72
2021/12/10 00:53:48;;;;;;;34.25;15.15;;;5.90;99.90;;;;;;5069547;28;20419;-72
2021/12/10 00:56:14;;;;;;;31.90;15.00;;;5.80;99.90;;;;;;5069299;28;20414;-73
2021/12/10 00:58:41;;;;;;;36.08;16.10;;;5.80;99.90;;;;;;5070116;28;20768;-73
2021/12/10 01:01:11;;;;;;;33.30;16.00;;;5.80;99.90;;;;;;5081458;28;20784;-72
2021/12/10 01:03:47;;;;;;;32.40;16.73;;;5.80;99.90;;;;;;5076032;28;20994;-73
2021/12/10 01:06:16;;;;;;;32.83;16.40;;;5.80;99.90;;;;;;5066708;28;20806;-72
2021/12/10 01:08:45;;;;;;;35.22;16.33;;;5.80;99.90;;;;;;5070073;28;20418;-75
2021/12/10 01:11:21;;;;;;;35.92;17.58;;;5.80;99.90;;;;;;5066893;28;20423;-73
2021/12/10 01:13:52;;;;;;;34.03;17.52;;;5.90;99.90;;;;;;5068303;28;20437;-72
2021/12/10 01:24:50;;;;;;;39.97;20.27;;;5.70;99.90;;;;;;5083333;28;20427;-72
2021/12/10 01:27:28;;;;;;;36.65;19.88;;;5.70;99.90;;;;;;5067769;28;20796;-72
2021/12/10 01:29:57;;;;;;;41.40;20.52;;;5.70;99.90;;;;;;5068099;28;20432;-71
2021/12/10 01:32:27;;;;;;;45.30;21.70;;;5.70;99.90;;;;;;5052866;28;20955;-71
2021/12/10 01:34:53;;;;;;;45.55;22.00;;;5.70;99.90;;;;;;5055049;28;20537;-73
2021/12/10 01:37:19;;;;;;;37.75;21.65;;;5.70;99.90;;;;;;5068230;28;20423;-71
2021/12/10 01:39:45;;;;;;;37.42;22.30;;;5.70;99.90;;;;;;5048230;28;20542;-70
2021/12/10 01:42:20;;;;;;;42.78;22.80;;;5.70;99.90;;;;;;5068470;28;20505;-72
2021/12/10 01:44:51;;;;;;;38.43;23.60;;;5.70;99.90;;;;;;5067399;28;20435;-72
2021/12/10 01:47:20;;;;;;;43.85;23.85;;;5.70;99.90;;;;;;5050375;28;20419;-72
2021/12/10 01:49:46;;;;;;;44.42;24.70;;;5.70;99.90;;;;;;5067064;28;20396;-72
2021/12/10 01:52:15;;;;;;;38.10;24.13;;;5.70;99.90;;;;;;5068977;28;20915;-71
2021/12/10 01:54:47;;;;;;;37.65;23.90;;;5.70;99.90;;;;;;5049538;28;20407;-70
2021/12/10 01:57:14;;;;;;;42.13;23.40;;;5.70;99.90;;;;;;5042596;28;20423;-71
2021/12/10 01:59:42;;;;;;;35.47;22.70;;;5.70;99.90;;;;;;5067357;28;20446;-72
2021/12/10 02:02:11;;;;;;;39.25;22.38;;;5.70;99.90;;;;;;5057914;28;20401;-71
2021/12/10 02:04:40;;;;;;;35.03;21.55;;;5.60;99.90;;;;;;5065133;28;20880;-72
2021/12/10 02:07:08;;;;;;;34.87;21.17;;;5.60;99.90;;;;;;5047671;28;20468;-71
2021/12/10 02:09:34;;;;;;;40.75;21.85;;;5.60;99.90;;;;;;5065353;28;20807;-71
2021/12/10 02:12:00;;;;;;;35.58;21.60;;;5.60;99.90;;;;;;5067590;28;20411;-72
2021/12/10 02:14:26;;;;;;;34.50;22.00;;;5.60;99.90;;;;;;5049470;28;20431;-74
2021/12/10 02:16:55;;;;;;;38.30;21.90;;;5.60;99.90;;;;;;5048785;28;20403;-72
2021/12/10 02:19:21;;;;;;;35.55;20.60;;;5.60;99.90;;;;;;5068369;28;20430;-72
2021/12/10 02:21:47;;;;;;;35.27;20.10;;;5.60;99.90;;;;;;5064140;28;20411;-72
2021/12/10 02:24:14;;;;;;;37.58;20.55;;;5.50;99.90;;;;;;5067115;28;20411;-72
2021/12/10 02:26:44;;;;;;;31.90;19.40;;;5.60;99.90;;;;;;5045832;28;20488;-71
2021/12/10 02:29:11;;;;;;;33.10;19.35;;;5.50;99.90;;;;;;5045070;28;20410;-72
2021/12/10 02:31:37;;;;;;;33.20;19.02;;;5.50;99.90;;;;;;5068423;28;20408;-72
2021/12/10 02:34:04;;;;;;;31.93;18.20;;;5.50;99.90;;;;;;5050431;28;20412;-73
2021/12/10 02:36:30;;;;;;;30.25;17.50;;;5.50;99.90;;;;;;5065362;28;20427;-72
2021/12/10 02:38:57;;;;;;;30.52;18.17;;;5.40;99.90;;;;;;5067178;28;20430;-72
2021/12/10 02:41:27;;;;;;;29.35;17.90;;;5.40;99.90;;;;;;5067136;28;20428;-73
2021/12/10 02:43:53;;;;;;;34.38;18.13;;;5.40;99.90;;;;;;5079984;28;20404;-73
2021/12/10 02:46:19;;;;;;;28.13;17.15;;;5.40;99.90;;;;;;5050774;28;20796;-74
2021/12/10 02:48:45;;;;;;;32.30;17.73;;;5.40;99.90;;;;;;5066960;28;20428;-72
2021/12/10 02:51:11;;;;;;;35.47;18.60;;;5.40;99.90;;;;;;5066049;28;20453;-73
2021/12/10 02:53:42;;;;;;;28.13;17.60;;;5.40;99.90;;;;;;5067253;28;20990;-74
2021/12/10 02:56:08;;;;;;;30.38;17.55;;;5.40;99.90;;;;;;5070617;28;20409;-74
2021/12/10 02:58:34;;;;;;;29.55;17.00;;;5.40;99.90;;;;;;5069177;28;20490;-73
2021/12/10 03:01:19;;;;;;;28.75;16.65;;;5.40;99.90;;;;;;5048858;28;20494;-73
2021/12/10 03:03:44;;;;;;;28.15;16.40;;;5.40;99.90;;;;;;5081348;28;20409;-74
2021/12/10 03:06:15;;;;;;;27.42;15.68;;;5.40;99.90;;;;;;5066538;28;20494;-76
2021/12/10 03:08:45;;;;;;;27.10;14.98;;;5.40;99.90;;;;;;5031904;28;20493;-72
2021/12/10 03:11:12;;;;;;;28.52;14.43;;;5.40;99.90;;;;;;5050587;28;20411;-71
2021/12/10 03:13:39;;;;;;;26.58;13.90;;;5.40;99.90;;;;;;5048099;28;20446;-72
2021/12/10 03:16:06;;;;;;;24.75;13.13;;;5.40;99.90;;;;;;5070035;28;20403;-72
2021/12/10 03:18:32;;;;;;;22.88;12.18;;;5.40;99.90;;;;;;5065571;28;20404;-73
2021/12/10 03:20:58;;;;;;;23.63;12.35;;;5.40;99.90;;;;;;5045762;28;20413;-71
2021/12/10 03:23:24;;;;;;;20.17;11.77;;;5.30;99.90;;;;;;5066050;28;20793;-72
2021/12/10 03:25:50;;;;;;;21.73;11.20;;;5.30;99.90;;;;;;5052728;28;20763;-73
2021/12/10 03:28:16;;;;;;;20.67;9.50;;;5.30;99.90;;;;;;5069474;28;20210;-71
2021/12/10 03:30:46;;;;;;;18.95;8.38;;;5.00;99.90;;;;;;5073929;28;20662;-73
2021/12/10 03:33:13;;;;;;;20.75;9.93;;;4.70;99.90;;;;;;5066589;28;20965;-74
2021/12/10 03:35:43;;;;;;;19.25;10.18;;;4.90;99.90;;;;;;5048290;28;20423;-74
2021/12/10 03:38:13;;;;;;;23.27;10.07;;;5.10;99.90;;;;;;5052628;28;20412;-72
2021/12/10 03:40:39;;;;;;;18.35;9.10;;;5.20;99.90;;;;;;5067413;28;20431;-72
2021/12/10 03:43:06;;;;;;;21.00;9.52;;;5.20;99.90;;;;;;5066270;28;20434;-74
2021/12/10 03:45:38;;;;;;;18.58;8.88;;;5.30;99.90;;;;;;5059494;28;20446;-72
2021/12/10 03:48:09;;;;;;;21.95;9.10;;;5.30;99.90;;;;;;5062692;28;20411;-73
2021/12/10 03:50:35;;;;;;;20.77;9.18;;;5.40;99.90;;;;;;5042931;28;20415;-73
2021/12/10 03:53:02;;;;;;;20.80;9.02;;;5.40;99.90;;;;;;5065808;28;20400;-72
2021/12/10 03:55:28;;;;;;;17.02;7.95;;;5.40;99.90;;;;;;5022556;28;20415;-72
2021/12/10 03:57:56;;;;;;;15.50;7.78;;;5.50;99.90;;;;;;5048086;28;20418;-74
2021/12/10 04:00:25;;;;;;;20.00;7.90;;;5.50;99.90;;;;;;5059925;28;20768;-73
2021/12/10 04:02:51;;;;;;;17.08;7.55;;;5.50;99.90;;;;;;5045063;28;20419;-71
2021/12/10 04:05:17;;;;;;;17.40;7.87;;;5.50;99.90;;;;;;5060149;28;20927;-72
2021/12/10 04:07:43;;;;;;;18.25;7.60;;;5.60;99.90;;;;;;5068704;28;20423;-71
2021/12/10 04:10:12;;;;;;;15.57;6.97;;;5.60;99.90;;;;;;5064185;28;20409;-74
2021/12/10 04:12:38;;;;;;;15.77;7.47;;;5.60;99.90;;;;;;5067244;28;20912;-73
2021/12/10 04:15:06;;;;;;;18.50;8.10;;;5.60;99.90;;;;;;5049466;28;20496;-73
2021/12/10 04:17:32;;;;;;;18.13;7.53;;;5.60;99.90;;;;;;5066013;28;21165;-72
2021/12/10 04:19:58;;;;;;;20.23;7.80;;;5.60;99.90;;;;;;5061230;28;20919;-72
2021/12/10 04:22:32;;;;;;;17.55;7.75;;;5.50;99.90;;;;;;5058463;28;20403;-72
2021/12/10 04:24:59;;;;;;;17.38;8.60;;;5.50;99.90;;;;;;5060818;28;20409;-76
2021/12/10 04:27:24;;;;;;;19.98;8.50;;;5.50;99.90;;;;;;5068311;28;20411;-71
2021/12/10 04:29:55;;;;;;;19.00;8.83;;;5.40;99.90;;;;;;5065644;28;20424;-72
2021/12/10 04:32:21;;;;;;;18.90;9.02;;;5.40;99.90;;;;;;5070002;28;20471;-72
2021/12/10 04:34:47;;;;;;;24.03;9.23;;;5.30;99.90;;;;;;5045225;28;20485;-73
2021/12/10 04:37:12;;;;;;;20.77;8.98;;;5.30;99.90;;;;;;5051838;28;20446;-70
2021/12/10 04:39:44;;;;;;;22.55;9.20;;;5.30;99.90;;;;;;5046991;28;20474;-72
2021/12/10 04:42:11;;;;;;;22.25;8.55;;;5.20;99.90;;;;;;5069791;28;20755;-72
2021/12/10 04:44:37;;;;;;;17.20;8.30;;;5.30;99.90;;;;;;5068110;28;20415;-72
2021/12/10 04:47:03;;;;;;;20.10;7.90;;;5.30;99.90;;;;;;5052540;28;20936;-72
2021/12/10 04:49:29;;;;;;;19.63;8.13;;;5.30;99.90;;;;;;5069096;28;20416;-72
2021/12/10 04:51:57;;;;;;;22.90;8.27;;;5.30;99.90;;;;;;5068423;28;20406;-75
2021/12/10 04:54:24;;;;;;;17.00;7.17;;;5.30;99.90;;;;;;5069679;28;20419;-71
2021/12/10 04:56:54;;;;;;;17.05;7.03;;;5.30;99.90;;;;;;5068554;28;20415;-71
2021/12/10 04:59:22;;;;;;;17.63;7.20;;;5.30;99.90;;;;;;5058334;28;20944;-72
2021/12/10 05:01:49;;;;;;;17.00;7.18;;;5.30;99.90;;;;;;5068339;28;20489;-72
2021/12/10 05:04:15;;;;;;;15.40;7.00;;;5.30;99.90;;;;;;5069674;28;20499;-73
2021/12/10 05:06:42;;;;;;;12.77;6.47;;;5.30;99.90;;;;;;5049340;28;20415;-71
2021/12/10 05:09:11;;;;;;;13.30;6.27;;;5.30;99.90;;;;;;5069795;28;20887;-72
2021/12/10 05:11:36;;;;;;;16.00;6.28;;;5.40;99.90;;;;;;5049288;28;20419;-72
2021/12/10 05:14:05;;;;;;;14.03;6.00;;;5.40;99.90;;;;;;5069001;28;20415;-71
2021/12/10 05:16:31;;;;;;;13.57;6.05;;;5.40;99.90;;;;;;5050082;28;20760;-72
2021/12/10 05:19:00;;;;;;;15.18;5.80;;;5.40;99.90;;;;;;5039005;28;20426;-71
2021/12/10 05:21:33;;;;;;;13.48;5.53;;;5.40;99.90;;;;;;5067877;28;20411;-71
2021/12/10 05:24:00;;;;;;;14.60;5.82;;;5.40;99.90;;;;;;5069541;28;20481;-70
2021/12/10 05:26:26;;;;;;;13.50;5.93;;;5.40;99.90;;;;;;5049587;28;20411;-73
2021/12/10 05:28:52;;;;;;;11.33;5.70;;;5.40;99.90;;;;;;5049188;28;20492;-73
2021/12/10 05:31:18;;;;;;;14.60;5.40;;;5.40;99.90;;;;;;5067524;28;20443;-72
2021/12/10 05:33:44;;;;;;;13.15;5.50;;;5.40;99.90;;;;;;5070122;28;20439;-73
2021/12/10 05:36:10;;;;;;;14.82;6.07;;;5.50;99.90;;;;;;5067092;28;20445;-72
2021/12/10 05:38:36;;;;;;;13.10;5.40;;;5.50;99.90;;;;;;5051065;28;20904;-73
2021/12/10 05:41:05;;;;;;;15.07;5.43;;;5.50;99.90;;;;;;5066507;28;21183;-71
2021/12/10 05:43:35;;;;;;;13.85;5.55;;;5.50;99.90;;;;;;5067815;28;20476;-71
2021/12/10 05:46:01;;;;;;;13.40;5.05;;;5.50;99.90;;;;;;5065861;28;20424;-71
2021/12/10 05:48:27;;;;;;;13.30;5.70;;;5.50;99.90;;;;;;5068089;28;20426;-72
2021/12/10 05:50:53;;;;;;;16.67;5.30;;;5.60;99.90;;;;;;5069113;28;20765;-72
2021/12/10 05:53:19;;;;;;;10.05;5.40;;;5.60;99.90;;;;;;5051272;28;20404;-72
2021/12/10 05:55:45;;;;;;;14.38;5.40;;;5.60;99.90;;;;;;5065727;28;20421;-72
2021/12/10 05:58:11;;;;;;;14.80;5.15;;;5.60;99.90;;;;;;5063486;28;20415;-74
2021/12/10 06:00:47;;;;;;;11.57;4.88;;;5.60;99.90;;;;;;5030719;28;20404;-73
2021/12/10 06:03:13;;;;;;;13.88;5.28;;;5.60;99.90;;;;;;5049006;28;20895;-72
2021/12/10 06:05:40;;;;;;;12.75;5.03;;;5.60;99.90;;;;;;5037624;28;20394;-72
2021/12/10 06:08:07;;;;;;;12.73;5.57;;;5.60;99.90;;;;;;5049743;28;20415;-73
2021/12/10 06:10:35;;;;;;;13.40;5.77;;;5.60;99.90;;;;;;5072975;28;20485;-73
2021/12/10 06:13:01;;;;;;;13.35;5.57;;;5.60;99.90;;;;;;5067766;28;20408;-72
2021/12/10 06:15:29;;;;;;;14.02;5.60;;;5.60;99.90;;;;;;5064267;28;20415;-73
2021/12/10 06:17:55;;;;;;;18.23;5.80;;;5.60;99.90;;;;;;5074134;28;20618;-72
2021/12/10 06:20:25;;;;;;;12.60;5.30;;;5.60;99.90;;;;;;5067077;28;20404;-72
2021/12/10 06:22:52;;;;;;;13.63;5.40;;;5.60;99.90;;;;;;5066891;28;20407;-72
2021/12/10 06:25:18;;;;;;;13.88;5.50;;;5.60;99.90;;;;;;5067440;28;20411;-72
2021/12/10 06:27:46;;;;;;;12.90;5.25;;;5.60;99.90;;;;;;5067409;28;20464;-74
2021/12/10 06:30:16;;;;;;;16.60;5.68;;;5.50;99.90;;;;;;5065969;28;20483;-73
2021/12/10 06:32:45;;;;;;;16.35;5.22;;;5.60;99.90;;;;;;5050755;28;20404;-72
2021/12/10 06:35:12;;;;;;;13.65;5.47;;;5.60;99.90;;;;;;5069995;28;20419;-72
2021/12/10 06:37:40;;;;;;;15.32;5.50;;;5.60;99.90;;;;;;5066611;28;20396;-73
2021/12/10 06:40:09;;;;;;;15.52;5.60;;;5.50;99.90;;;;;;5067146;28;20967;-71
2021/12/10 06:42:35;;;;;;;13.23;5.22;;;5.60;99.90;;;;;;5048855;28;20411;-73
2021/12/10 06:45:04;;;;;;;13.98;5.57;;;5.60;99.90;;;;;;5029844;28;20516;-73
2021/12/10 06:47:30;;;;;;;14.98;5.70;;;5.60;99.90;;;;;;5060633;28;20443;-71
2021/12/10 06:49:56;;;;;;;16.45;5.70;;;5.60;99.90;;;;;;5062778;28;20931;-72
2021/12/10 06:52:22;;;;;;;15.10;5.37;;;5.60;99.90;;;;;;5063857;28;20407;-71
2021/12/10 06:54:48;;;;;;;14.00;5.80;;;5.60;99.90;;;;;;5043661;28;20486;-73
2021/12/10 06:57:13;;;;;;;13.73;5.13;;;5.60;99.90;;;;;;5063084;28;20403;-71
2021/12/10 06:59:39;;;;;;;13.57;5.20;;;5.60;99.90;;;;;;5059884;28;20411;-72
2021/12/10 07:02:05;;;;;;;12.60;4.97;;;5.60;99.90;;;;;;5041155;28;20413;-71
2021/12/10 07:04:31;;;;;;;14.07;5.10;;;5.60;99.90;;;;;;5058818;28;21317;-71
2021/12/10 07:06:57;;;;;;;17.02;5.43;;;5.60;99.90;;;;;;5061220;28;20423;-71
2021/12/10 07:09:25;;;;;;;15.17;4.80;;;5.70;99.90;;;;;;5062619;28;20407;-72
2021/12/10 07:11:53;;;;;;;11.95;5.30;;;5.70;99.90;;;;;;5059103;28;20875;-73
2021/12/10 07:14:19;;;;;;;12.13;5.22;;;5.70;99.90;;;;;;5059678;28;20407;-72
2021/12/10 07:16:46;;;;;;;14.80;5.30;;;5.70;99.90;;;;;;5061513;28;20428;-72
2021/12/10 07:19:14;;;;;;;14.00;4.65;;;5.70;99.90;;;;;;5063233;28;20414;-71
2021/12/10 07:21:40;;;;;;;11.32;4.60;;;5.70;99.90;;;;;;5066369;28;20443;-70
2021/12/10 07:24:10;;;;;;;13.75;4.45;;;5.70;99.90;;;;;;5062839;28;20422;-72
2021/12/10 07:26:37;;;;;;;14.60;4.57;;;5.70;99.90;;;;;;5065533;28;20407;-70
2021/12/10 07:29:05;;;;;;;16.95;4.53;;;5.80;99.90;;;;;;5063002;28;20408;-72
2021/12/10 07:31:31;;;;;;;11.13;4.30;;;5.80;99.90;;;;;;5065260;28;20878;-72
2021/12/10 07:33:57;;;;;;;13.38;4.53;;;5.80;99.90;;;;;;5045299;28;20457;-73
2021/12/10 07:36:23;;;;;;;13.00;4.50;;;5.80;99.90;;;;;;5064249;28;20407;-73
2021/12/10 07:38:50;;;;;;;12.68;4.50;;;5.80;99.90;;;;;;5064797;28;20409;-72
2021/12/10 07:41:16;;;;;;;13.50;4.07;;;5.80;99.90;;;;;;5065347;28;20424;-73
2021/12/10 07:43:42;;;;;;;12.20;4.07;;;5.80;99.90;;;;;;5066417;28;20414;-72
2021/12/10 07:46:09;;;;;;;12.57;4.20;;;5.80;99.90;;;;;;5069355;28;20406;-71
2021/12/10 07:48:35;;;;;;;15.27;4.50;;;5.80;99.90;;;;;;5068942;28;20892;-71
2021/12/10 07:51:06;;;;;;;14.32;4.13;;;5.80;99.90;;;;;;5070184;28;20817;-72
2021/12/10 07:53:33;;;;;;;11.90;4.23;;;5.90;99.90;;;;;;5068144;28;20826;-72
2021/12/10 07:56:01;;;;;;;11.97;4.27;;;5.90;99.90;;;;;;5053802;28;20433;-73
2021/12/10 07:58:29;;;;;;;12.48;3.90;;;5.90;99.90;;;;;;5067872;28;20525;-72
2021/12/10 08:00:56;;;;;;;10.77;4.05;;;5.90;99.90;;;;;;5044108;28;20983;-73
2021/12/10 08:03:22;;;;;;;9.87;3.90;;;5.90;99.90;;;;;;5046685;28;20504;-73
2021/12/10 08:05:49;;;;;;;12.25;3.83;;;5.90;99.90;;;;;;5042983;28;20427;-71
2021/12/10 08:08:14;;;;;;;11.20;3.60;;;5.90;99.90;;;;;;5064117;28;20463;-72
2021/12/10 08:10:41;;;;;;;12.20;3.58;;;5.90;99.90;;;;;;5061019;28;20412;-72
2021/12/10 08:13:08;;;;;;;12.93;4.17;;;5.90;99.90;;;;;;5069200;28;20411;-73
2021/12/10 08:15:34;;;;;;;13.57;4.00;;;6.00;99.90;;;;;;5062511;28;20442;-72
2021/12/10 08:18:00;;;;;;;17.58;4.32;;;6.00;99.90;;;;;;5044982;28;20408;-73
2021/12/10 08:20:27;;;;;;;12.35;3.72;;;6.00;99.90;;;;;;5059421;28;20419;-71
2021/12/10 08:22:54;;;;;;;12.52;4.28;;;6.00;99.90;;;;;;5065408;28;20421;-70
2021/12/10 08:25:22;;;;;;;11.18;3.75;;;6.00;99.90;;;;;;5054336;28;21264;-72
2021/12/10 08:27:49;;;;;;;12.30;3.90;;;6.00;99.90;;;;;;5068403;28;20423;-70
2021/12/10 08:30:16;;;;;;;11.80;4.07;;;6.00;99.90;;;;;;5065423;28;20900;-73
2021/12/10 08:32:43;;;;;;;11.35;3.92;;;6.00;99.90;;;;;;5069308;28;20399;-73
2021/12/10 08:35:13;;;;;;;11.25;4.10;;;6.00;99.90;;;;;;5058074;28;20507;-72
2021/12/10 08:37:40;;;;;;;12.25;4.03;;;6.00;99.90;;;;;;5057262;28;20908;-72
2021/12/10 08:40:08;;;;;;;14.90;4.13;;;6.00;99.90;;;;;;5041750;28;20424;-72
2021/12/10 08:42:34;;;;;;;11.35;4.00;;;6.10;99.90;;;;;;5068867;28;20408;-72
2021/12/10 08:45:00;;;;;;;14.23;3.70;;;6.10;99.90;;;;;;5065051;28;20422;-71
2021/12/10 08:47:25;;;;;;;13.15;3.83;;;6.10;99.90;;;;;;5069369;28;20415;-73
2021/12/10 08:49:51;;;;;;;11.48;3.85;;;6.10;99.90;;;;;;5072553;28;20430;-71
2021/12/10 08:52:18;;;;;;;16.80;4.20;;;6.10;99.90;;;;;;5073322;28;20434;-72
2021/12/10 08:54:47;;;;;;;12.70;4.13;;;6.20;99.90;;;;;;5067212;28;20403;-72
2021/12/10 08:57:13;;;;;;;13.45;4.28;;;6.20;99.90;;;;;;5067941;28;20430;-72
2021/12/10 08:59:40;;;;;;;12.10;3.88;;;6.20;99.90;;;;;;5068203;28;20445;-72
2021/12/10 09:02:14;;;;;;;13.50;3.88;;;6.10;99.90;;;;;;5065913;28;20411;-72
2021/12/10 09:04:40;;;;;;;9.65;3.70;;;6.10;99.90;;;;;;5066321;28;20407;-72
2021/12/10 09:07:10;;;;;;;13.73;4.10;;;6.10;99.90;;;;;;5068848;28;20760;-72
2021/12/10 09:09:39;;;;;;;11.23;3.83;;;6.10;99.90;;;;;;5065749;28;20465;-71
2021/12/10 09:12:12;;;;;;;12.73;4.13;;;6.10;99.90;;;;;;5065875;28;20470;-71
2021/12/10 09:14:44;;;;;;;15.68;4.05;;;6.10;99.90;;;;;;5066932;28;20411;-73
2021/12/10 09:17:11;;;;;;;13.75;4.13;;;6.10;99.90;;;;;;5100412;28;20483;-71
2021/12/10 09:19:40;;;;;;;12.70;3.88;;;6.10;99.90;;;;;;5064107;28;20900;-71
2021/12/10 09:22:08;;;;;;;12.02;3.85;;;6.10;99.90;;;;;;5066693;28;20426;-72
2021/12/10 09:24:35;;;;;;;12.32;3.95;;;6.10;99.90;;;;;;5065333;28;20496;-71
2021/12/10 09:27:01;;;;;;;17.50;4.30;;;6.10;99.90;;;;;;5065734;28;20487;-72
2021/12/10 09:29:31;;;;;;;14.57;4.22;;;6.20;99.90;;;;;;5077555;28;20400;-71
2021/12/10 09:31:58;;;;;;;13.13;4.63;;;6.20;99.90;;;;;;5066655;28;20406;-72
2021/12/10 09:34:23;;;;;;;13.88;4.90;;;6.20;99.90;;;;;;5068497;28;20824;-69
2021/12/10 09:36:50;;;;;;;14.98;4.90;;;6.20;99.90;;;;;;5065531;28;20498;-69
2021/12/10 09:39:18;;;;;;;14.60;5.23;;;6.20;99.90;;;;;;5064873;28;20407;-71
2021/12/10 09:41:44;;;;;;;15.77;5.90;;;6.20;99.90;;;;;;5069942;28;20777;-70
2021/12/10 09:44:10;;;;;;;17.17;6.10;;;6.20;99.90;;;;;;5068278;28;20909;-69
2021/12/10 09:46:38;;;;;;;19.13;6.80;;;6.20;99.90;;;;;;5066083;28;20415;-70
2021/12/10 09:49:06;;;;;;;22.92;7.20;;;6.20;99.90;;;;;;5068238;28;20435;-71
2021/12/10 09:51:46;;;;;;;21.08;7.00;;;6.10;99.90;;;;;;5071993;28;20480;-72
2021/12/10 09:54:16;;;;;;;15.38;6.63;;;6.10;99.90;;;;;;5064967;28;20423;-72
2021/12/10 09:56:46;;;;;;;20.05;6.90;;;6.10;99.90;;;;;;5066567;28;20489;-71
2021/12/10 09:59:13;;;;;;;19.90;7.63;;;6.10;99.90;;;;;;5073831;28;20400;-72
2021/12/10 10:01:42;;;;;;;20.73;7.30;;;6.20;99.90;;;;;;5065959;28;20426;-71
2021/12/10 10:04:10;;;;;;;22.60;8.00;;;6.10;99.90;;;;;;5067579;28;20982;-70
2021/12/10 10:06:43;;;;;;;22.00;7.45;;;6.20;99.90;;;;;;5068387;28;20422;-70
2021/12/10 10:09:11;;;;;;;21.42;8.20;;;6.20;99.90;;;;;;5066917;28;20429;-71
2021/12/10 10:11:36;;;;;;;20.73;8.70;;;6.20;99.90;;;;;;5070618;28;20480;-70
2021/12/10 10:14:04;;;;;;;24.05;8.60;;;6.10;99.90;;;;;;5070226;28;20443;-71
2021/12/10 10:16:33;;;;;;;21.00;9.00;;;6.20;99.90;;;;;;5065375;28;20500;-71
2021/12/10 10:18:59;;;;;;;25.23;9.00;;;6.20;99.90;;;;;;5067830;28;20744;-71
2021/12/10 10:21:33;;;;;;;21.20;8.70;;;6.20;99.90;;;;;;5068392;28;20450;-71
2021/12/10 10:24:00;;;;;;;22.95;8.93;;;6.20;99.90;;;;;;5067420;28;20460;-72
2021/12/10 10:26:33;;;;;;;21.73;9.00;;;6.20;99.90;;;;;;5064733;28;20415;-71
2021/12/10 10:29:01;;;;;;;21.77;9.55;;;6.10;99.90;;;;;;5064310;28;20407;-72
2021/12/10 10:31:27;;;;;;;16.05;8.98;;;6.10;99.90;;;;;;5065974;28;20481;-73
2021/12/10 10:33:56;;;;;;;23.73;9.05;;;6.10;99.90;;;;;;5067724;28;20438;-72
2021/12/10 10:36:27;;;;;;;20.77;9.23;;;6.10;99.90;;;;;;5067593;28;20419;-71
2021/12/10 10:38:59;;;;;;;20.90;8.98;;;6.10;99.90;;;;;;5049306;28;20850;-73
2021/12/10 10:41:31;;;;;;;25.30;10.18;;;6.10;99.90;;;;;;5067855;28;20435;-73
2021/12/10 10:43:57;;;;;;;25.98;10.38;;;6.10;99.90;;;;;;5067065;28;20769;-71
2021/12/10 10:46:24;;;;;;;18.65;9.98;;;6.10;99.90;;;;;;5055548;28;20415;-70
2021/12/10 10:48:50;;;;;;;22.42;10.27;;;6.20;99.90;;;;;;5067424;28;20418;-70
2021/12/10 10:51:24;;;;;;;16.63;9.63;;;6.30;99.90;;;;;;5064446;28;20812;-71
2021/12/10 10:53:53;;;;;;;23.80;10.40;;;6.30;99.90;;;;;;5068333;28;20473;-71
2021/12/10 10:56:32;;;;;;;21.10;9.90;;;6.40;99.90;;;;;;5072229;28;20414;-70
2021/12/10 10:59:01;;;;;;;21.20;9.15;;;6.30;99.90;;;;;;5073390;28;20198;-71
2021/12/10 11:01:44;;;;;;;24.90;8.20;;;6.00;99.90;;;;;;5072116;28;20277;-73
2021/12/10 11:04:25;;;;;;;21.85;8.30;;;5.70;99.90;;;;;;5072877;28;20200;-70
2021/12/10 11:06:54;;;;;;;18.27;8.23;;;5.60;99.90;;;;;;5067503;28;20218;-70
2021/12/10 11:09:27;;;;;;;25.60;9.02;;;5.40;99.90;;;;;;5062889;28;20622;-71
2021/12/10 11:12:04;;;;;;;27.75;9.15;;;5.30;99.90;;;;;;5072889;28;20181;-70
2021/12/10 11:14:37;;;;;;;21.65;9.75;;;5.20;99.90;;;;;;5070698;28;20209;-71
2021/12/10 11:17:15;;;;;;;32.33;9.02;;;5.20;99.90;;;;;;5069773;28;20269;-71
2021/12/10 11:19:49;;;;;;;24.08;9.55;;;5.20;99.90;;;;;;5070822;28;20182;-71
2021/12/10 11:22:16;;;;;;;21.90;8.93;;;5.20;99.90;;;;;;5052038;28;20186;-72
2021/12/10 11:24:54;;;;;;;26.30;9.48;;;5.10;99.90;;;;;;5075780;28;20190;-71
2021/12/10 11:27:25;;;;;;;21.23;9.30;;;5.10;99.90;;;;;;5070369;28;20218;-71
2021/12/10 11:30:02;;;;;;;20.90;9.73;;;5.20;99.90;;;;;;5070340;28;20277;-71
2021/12/10 11:32:35;;;;;;;20.13;9.98;;;5.20;99.90;;;;;;5063216;28;20186;-70
2021/12/10 11:35:09;;;;;;;27.27;10.02;;;5.20;99.90;;;;;;5083062;28;20182;-70
2021/12/10 11:37:48;;;;;;;23.88;10.07;;;5.20;99.90;;;;;;5081474;28;20188;-70
2021/12/10 11:40:23;;;;;;;21.98;10.20;;;5.20;99.90;;;;;;5072636;28;20217;-70
2021/12/10 11:42:56;;;;;;;22.63;11.00;;;5.20;99.90;;;;;;5076300;28;20261;-71
2021/12/10 11:45:43;;;;;;;27.42;10.57;;;5.30;99.90;;;;;;5069356;28;20190;-72
2021/12/10 11:48:18;;;;;;;24.02;11.93;;;5.40;99.90;;;;;;5069883;28;20419;-70
2021/12/10 11:50:55;;;;;;;23.42;11.90;;;5.80;99.90;;;;;;5071934;28;20417;-70
2021/12/10 11:53:21;;;;;;;19.83;12.00;;;6.20;99.90;;;;;;5060949;28;20431;-70
2021/12/10 11:55:56;;;;;;;23.43;11.03;;;6.40;99.90;;;;;;5071357;28;20439;-71
2021/12/10 11:58:21;;;;;;;23.45;10.98;;;6.50;99.90;;;;;;5083256;28;20405;-72
2021/12/10 12:00:47;;;;;;;21.15;10.35;;;6.70;99.90;;;;;;5068415;28;20419;-71
2021/12/10 12:03:13;;;;;;;23.60;10.73;;;6.70;99.90;;;;;;5070386;28;20495;-70
2021/12/10 12:05:41;;;;;;;21.60;10.82;;;6.80;99.90;;;;;;5067677;28;20415;-71
2021/12/10 12:08:13;;;;;;;23.23;10.82;;;6.80;99.90;;;;;;5087405;28;20426;-72
2021/12/10 12:11:07;;;;;;;25.73;10.40;;;6.90;99.90;;;;;;5054283;28;20419;-72
2021/12/10 12:13:37;;;;;;;19.80;9.90;;;6.90;99.90;;;;;;5080145;28;20421;-73
2021/12/10 12:16:06;;;;;;;22.77;9.93;;;6.90;99.90;;;;;;5067194;28;20415;-71
2021/12/10 12:18:42;;;;;;;19.65;10.55;;;6.90;99.90;;;;;;5066542;28;20924;-71
2021/12/10 12:26:50;;;;;;;24.08;11.30;;;7.00;99.90;;;;;;5067791;28;20431;-71
2021/12/10 12:29:17;;;;;;;29.35;11.00;;;7.00;99.90;;;;;;5079576;28;20803;-70
2021/12/10 12:31:46;;;;;;;22.48;11.65;;;7.00;99.90;;;;;;5072195;28;20427;-69
2021/12/10 12:34:14;;;;;;;21.52;9.82;;;7.00;99.90;;;;;;5074480;28;20502;-68
2021/12/10 12:36:58;;;;;;;21.10;9.90;;;7.10;99.90;;;;;;5049527;28;20919;-71
2021/12/10 12:39:52;;;;;;;18.45;9.98;;;7.10;99.90;;;;;;5077457;28;20437;-70
2021/12/10 12:42:23;;;;;;;20.48;9.48;;;7.10;99.90;;;;;;5066882;28;20407;-72
2021/12/10 12:44:55;;;;;;;20.75;9.45;;;7.10;99.90;;;;;;5067688;28;20423;-71
2021/12/10 12:47:28;;;;;;;23.98;13.15;;;7.10;99.90;;;;;;5070568;28;20419;-71
2021/12/10 12:49:56;;;;;;;24.67;10.60;;;7.10;99.90;;;;;;5069195;28;20477;-71
2021/12/10 12:52:27;;;;;;;19.92;10.00;;;7.10;99.90;;;;;;5070159;28;20411;-72
2021/12/10 12:55:10;;;;;;;21.77;9.80;;;7.10;99.90;;;;;;5050130;28;20411;-71
2021/12/10 12:57:55;;;;;;;19.08;9.10;;;7.10;99.90;;;;;;5066313;28;20445;-70
2021/12/10 13:00:33;;;;;;;24.45;9.80;;;7.20;99.90;;;;;;5070251;28;20418;-69
2021/12/10 13:03:06;;;;;;;22.40;10.00;;;7.20;99.90;;;;;;5076947;28;20426;-70
2021/12/10 13:05:49;;;;;;;17.67;10.07;;;7.20;99.90;;;;;;5068701;28;20407;-71